IAD weather

Washington Dulles International Airport
Washington, District of Columbia, United States

Public forecast

Using degrees Fahrenheit for public forecast. Weather courtesy of forecast.io.

Current aviation weather report (METAR) for Washington Dulles International Airport

Retrieved 2020/08/05 18:52 UTC (23 minutes ago):

KIAD 051852Z 27005KT 10SM SCT050 30/18 A3006 RMK AO2 SLP176 T03000178

Aviation forecast (TAF) for Washington Dulles International Airport

Retrieved 2020/08/05 18:36 UTC (39 minutes ago):

TAF KIAD 051733Z 0518/0624 VRB03KT P6SM SCT120 FM060900 01004KT P6SM BKN040 FM061100 01004KT P6SM -SHRA BKN020 FM061400 06005KT P6SM OVC020 FM062200 08005KT P6SM -SHRA VCTS OVC035CB